Time,TemperatureF,DewpointF,PressureIn,WindDirection,WindDirectionDegrees,WindSpeedMPH,WindSpeedGustMPH,Humidity,HourlyPrecipIn,Conditions,Clouds,dailyrainin,SoftwareType,DateUTC
2013-05-11 00:00:00,75.6,73.1,30.04,SSW,195,0.0,3.0,92,0.00,,,0.00,Weather View 32 v70,2013-05-11 04:00:00,
2013-05-11 00:01:00,75.6,73.1,30.04,SSW,195,0.0,3.0,92,0.00,,,0.00,Weather View 32 v70,2013-05-11 04:01:00,
2013-05-11 00:02:00,75.6,73.1,30.04,SSW,195,0.0,3.0,92,0.00,,,0.00,Weather View 32 v70,2013-05-11 04:02:00,
2013-05-11 00:07:00,75.6,72.8,30.04,SSW,196,0.0,3.0,91,0.00,,,0.00,Weather View 32 v70,2013-05-11 04:07:00,
2013-05-11 00:12:00,75.6,72.8,30.04,SSW,195,0.0,3.0,91,0.00,,,0.00,Weather View 32 v70,2013-05-11 04:12:00,
2013-05-11 00:17:00,75.5,72.7,30.05,SSW,195,0.0,3.0,91,0.00,,,0.00,Weather View 32 v70,2013-05-11 04:17:00,
2013-05-11 00:22:00,75.4,72.6,30.05,SSW,196,0.0,3.0,91,0.00,,,0.00,Weather View 32 v70,2013-05-11 04:22:00,
2013-05-11 00:27:00,75.2,72.4,30.05,SSW,196,0.0,3.0,91,0.00,,,0.00,Weather View 32 v70,2013-05-11 04:27:00,
2013-05-11 00:32:00,75.0,72.5,30.05,SSW,195,0.0,2.0,92,0.00,,,0.00,Weather View 32 v70,2013-05-11 04:32:00,
2013-05-11 00:37:00,74.8,72.3,30.04,SSW,196,0.0,2.0,92,0.00,,,0.00,Weather View 32 v70,2013-05-11 04:37:00,
2013-05-11 00:42:00,74.8,72.3,30.04,SSW,196,0.0,2.0,92,0.00,,,0.00,Weather View 32 v70,2013-05-11 04:42:00,
2013-05-11 00:47:00,74.6,72.1,30.04,SSW,195,0.0,2.0,92,0.00,,,0.00,Weather View 32 v70,2013-05-11 04:47:00,
2013-05-11 00:52:00,74.5,72.0,30.04,SSW,196,0.0,2.0,92,0.00,,,0.00,Weather View 32 v70,2013-05-11 04:52:00,
2013-05-11 00:57:00,74.5,72.0,30.04,SSW,195,0.0,2.0,92,0.00,,,0.00,Weather View 32 v70,2013-05-11 04:57:00,
2013-05-11 01:00:00,74.5,72.0,30.04,SSW,196,0.0,2.0,92,0.00,,,0.00,Weather View 32 v70,2013-05-11 05:00:00,
2013-05-11 01:02:00,74.4,71.9,30.04,SSW,195,0.0,2.0,92,0.00,,,0.00,Weather View 32 v70,2013-05-11 05:02:00,
2013-05-11 01:07:00,74.3,71.8,30.04,SSW,196,0.0,2.0,92,0.00,,,0.00,Weather View 32 v70,2013-05-11 05:07:00,
2013-05-11 01:12:00,74.2,71.7,30.04,SSW,196,0.0,2.0,92,0.00,,,0.00,Weather View 32 v70,2013-05-11 05:12:00,
2013-05-11 01:17:00,74.1,71.6,30.04,SSW,195,0.0,2.0,92,0.00,,,0.00,Weather View 32 v70,2013-05-11 05:17:00,
2013-05-11 01:22:00,74.0,71.5,30.03,SSW,196,0.0,2.0,92,0.00,,,0.00,Weather View 32 v70,2013-05-11 05:22:00,
2013-05-11 01:27:00,74.0,71.8,30.03,SSW,195,0.0,1.0,93,0.00,,,0.00,Weather View 32 v70,2013-05-11 05:27:00,
2013-05-11 01:32:00,74.0,71.8,30.03,SSW,195,0.0,0.0,93,0.00,,,0.00,Weather View 32 v70,2013-05-11 05:32:00,
2013-05-11 01:37:00,73.9,71.7,30.03,SSW,196,0.0,0.0,93,0.00,,,0.00,Weather View 32 v70,2013-05-11 05:37:00,
2013-05-11 01:42:00,73.8,71.6,30.03,SSW,196,2.0,2.0,93,0.00,,,0.00,Weather View 32 v70,2013-05-11 05:42:00,
2013-05-11 01:47:00,73.8,71.6,30.02,SSW,195,1.0,2.0,93,0.00,,,0.00,Weather View 32 v70,2013-05-11 05:47:00,
2013-05-11 01:52:00,73.8,71.6,30.02,SSW,196,0.0,2.0,93,0.00,,,0.00,Weather View 32 v70,2013-05-11 05:52:00,
2013-05-11 01:57:00,73.7,71.5,30.02,SSW,196,0.0,2.0,93,0.00,,,0.00,Weather View 32 v70,2013-05-11 05:57:00,
2013-05-11 02:00:00,73.7,71.5,30.02,SSW,196,0.0,2.0,93,0.00,,,0.00,Weather View 32 v70,2013-05-11 06:00:00,
2013-05-11 02:02:00,73.7,71.5,30.02,SSW,195,0.0,2.0,93,0.00,,,0.00,Weather View 32 v70,2013-05-11 06:02:00,
2013-05-11 02:07:00,73.6,71.4,30.02,SSW,196,0.0,2.0,93,0.00,,,0.00,Weather View 32 v70,2013-05-11 06:07:00,
2013-05-11 02:12:00,73.5,71.3,30.02,SSW,196,0.0,2.0,93,0.00,,,0.00,Weather View 32 v70,2013-05-11 06:12:00,
2013-05-11 02:17:00,73.4,71.2,30.02,SSW,196,0.0,2.0,93,0.00,,,0.00,Weather View 32 v70,2013-05-11 06:17:00,
2013-05-11 02:22:00,73.3,71.1,30.02,SSW,196,0.0,2.0,93,0.00,,,0.00,Weather View 32 v70,2013-05-11 06:22:00,
2013-05-11 02:27:00,73.3,71.1,30.03,SSW,196,0.0,2.0,93,0.00,,,0.00,Weather View 32 v70,2013-05-11 06:27:00,
2013-05-11 02:32:00,73.2,71.0,30.03,SSW,195,0.0,2.0,93,0.00,,,0.00,Weather View 32 v70,2013-05-11 06:32:00,
2013-05-11 02:37:00,73.1,70.9,30.03,SSW,196,0.0,2.0,93,0.00,,,0.00,Weather View 32 v70,2013-05-11 06:37:00,
2013-05-11 02:42:00,73.2,71.0,30.03,SSW,196,0.0,2.0,93,0.00,,,0.00,Weather View 32 v70,2013-05-11 06:42:00,
2013-05-11 02:47:00,73.2,71.0,30.02,SSW,195,0.0,2.0,93,0.00,,,0.00,Weather View 32 v70,2013-05-11 06:47:00,
2013-05-11 02:52:00,73.1,70.9,30.02,SSW,195,0.0,2.0,93,0.00,,,0.00,Weather View 32 v70,2013-05-11 06:52:00,
2013-05-11 02:57:00,73.1,71.3,30.02,SSW,196,0.0,2.0,94,0.00,,,0.00,Weather View 32 v70,2013-05-11 06:57:00,
2013-05-11 03:00:00,73.0,71.2,30.02,SSW,196,0.0,2.0,94,0.00,,,0.00,Weather View 32 v70,2013-05-11 07:00:00,
2013-05-11 03:02:00,73.0,71.2,30.02,SSW,196,0.0,2.0,94,0.00,,,0.00,Weather View 32 v70,2013-05-11 07:02:00,
2013-05-11 03:07:00,73.0,71.2,30.02,SSW,194,0.0,2.0,94,0.00,,,0.00,Weather View 32 v70,2013-05-11 07:07:00,
2013-05-11 03:12:00,73.0,71.2,30.02,SSW,194,0.0,2.0,94,0.00,,,0.00,Weather View 32 v70,2013-05-11 07:12:00,
2013-05-11 03:17:00,73.1,71.3,30.02,SSW,194,0.0,2.0,94,0.00,,,0.00,Weather View 32 v70,2013-05-11 07:17:00,
2013-05-11 03:22:00,73.1,71.3,30.01,SSW,194,0.0,2.0,94,0.00,,,0.00,Weather View 32 v70,2013-05-11 07:22:00,
2013-05-11 03:27:00,73.1,71.3,30.01,SSW,194,0.0,2.0,94,0.00,,,0.00,Weather View 32 v70,2013-05-11 07:27:00,
2013-05-11 03:32:00,73.2,71.4,30.00,South,190,0.0,4.0,94,0.00,,,0.00,Weather View 32 v70,2013-05-11 07:32:00,
2013-05-11 03:37:00,73.1,71.3,30.00,South,190,0.0,4.0,94,0.00,,,0.00,Weather View 32 v70,2013-05-11 07:37:00,
2013-05-11 03:43:00,73.1,71.3,30.00,South,190,0.0,4.0,94,0.00,,,0.00,Weather View 32 v70,2013-05-11 07:43:00,
2013-05-11 03:48:00,73.0,71.2,30.00,South,190,0.0,4.0,94,0.00,,,0.00,Weather View 32 v70,2013-05-11 07:48:00,
2013-05-11 03:53:00,72.9,71.1,29.99,South,190,0.0,4.0,94,0.00,,,0.00,Weather View 32 v70,2013-05-11 07:53:00,
2013-05-11 03:58:00,72.8,71.0,29.99,South,190,0.0,4.0,94,0.00,,,0.00,Weather View 32 v70,2013-05-11 07:58:00,
2013-05-11 04:00:00,72.8,71.0,29.99,South,190,0.0,4.0,94,0.00,,,0.00,Weather View 32 v70,2013-05-11 08:00:00,
2013-05-11 04:03:00,72.8,71.0,29.99,South,190,0.0,4.0,94,0.00,,,0.00,Weather View 32 v70,2013-05-11 08:03:00,
2013-05-11 04:08:00,72.8,71.0,29.99,South,190,0.0,4.0,94,0.00,,,0.00,Weather View 32 v70,2013-05-11 08:08:00,
2013-05-11 04:13:00,72.8,71.0,29.99,South,190,0.0,4.0,94,0.00,,,0.00,Weather View 32 v70,2013-05-11 08:13:00,
2013-05-11 04:18:00,72.8,71.0,29.99,South,190,0.0,4.0,94,0.00,,,0.00,Weather View 32 v70,2013-05-11 08:18:00,
2013-05-11 04:23:00,72.8,71.0,29.99,South,190,0.0,4.0,94,0.00,,,0.00,Weather View 32 v70,2013-05-11 08:23:00,
2013-05-11 04:28:00,72.8,71.0,29.98,South,190,0.0,4.0,94,0.00,,,0.00,Weather View 32 v70,2013-05-11 08:28:00,
2013-05-11 04:33:00,72.7,70.9,29.98,South,190,0.0,3.0,94,0.00,,,0.00,Weather View 32 v70,2013-05-11 08:33:00,
2013-05-11 04:38:00,72.7,70.9,29.98,South,190,0.0,4.0,94,0.00,,,0.00,Weather View 32 v70,2013-05-11 08:38:00,
2013-05-11 04:43:00,72.7,70.9,29.99,South,190,0.0,4.0,94,0.00,,,0.00,Weather View 32 v70,2013-05-11 08:43:00,
2013-05-11 04:48:00,72.7,70.9,29.99,South,189,0.0,4.0,94,0.00,,,0.00,Weather View 32 v70,2013-05-11 08:48:00,
2013-05-11 04:53:00,72.7,70.9,29.99,South,189,0.0,4.0,94,0.00,,,0.00,Weather View 32 v70,2013-05-11 08:53:00,
2013-05-11 04:58:00,72.7,70.9,29.99,South,188,0.0,4.0,94,0.00,,,0.00,Weather View 32 v70,2013-05-11 08:58:00,
2013-05-11 05:00:00,72.7,70.9,29.99,South,188,3.0,4.0,94,0.00,,,0.00,Weather View 32 v70,2013-05-11 09:00:00,
2013-05-11 05:03:00,72.7,70.9,29.99,South,187,0.0,4.0,94,0.00,,,0.00,Weather View 32 v70,2013-05-11 09:03:00,
2013-05-11 05:08:00,72.8,71.0,29.99,South,187,0.0,4.0,94,0.00,,,0.00,Weather View 32 v70,2013-05-11 09:08:00,
2013-05-11 05:13:00,72.8,71.0,29.99,South,187,0.0,4.0,94,0.00,,,0.00,Weather View 32 v70,2013-05-11 09:13:00,
2013-05-11 05:18:00,72.9,71.1,29.99,South,187,0.0,4.0,94,0.00,,,0.00,Weather View 32 v70,2013-05-11 09:18:00,
2013-05-11 05:23:00,72.9,71.1,29.99,South,178,2.0,4.0,94,0.00,,,0.00,Weather View 32 v70,2013-05-11 09:23:00,
2013-05-11 05:28:00,72.8,71.0,29.99,South,178,0.0,4.0,94,0.00,,,0.00,Weather View 32 v70,2013-05-11 09:28:00,
2013-05-11 05:33:00,72.8,71.0,30.00,South,178,0.0,4.0,94,0.00,,,0.00,Weather View 32 v70,2013-05-11 09:33:00,
2013-05-11 05:38:00,72.7,70.9,30.00,South,178,0.0,4.0,94,0.00,,,0.00,Weather View 32 v70,2013-05-11 09:38:00,
2013-05-11 05:43:00,72.7,70.9,30.00,South,178,0.0,4.0,94,0.00,,,0.00,Weather View 32 v70,2013-05-11 09:43:00,
2013-05-11 05:48:00,72.6,70.8,30.00,South,178,0.0,4.0,94,0.00,,,0.00,Weather View 32 v70,2013-05-11 09:48:00,
2013-05-11 05:53:00,72.6,70.8,30.00,South,178,0.0,4.0,94,0.00,,,0.00,Weather View 32 v70,2013-05-11 09:53:00,
2013-05-11 05:58:00,72.6,70.8,30.00,South,178,0.0,4.0,94,0.00,,,0.00,Weather View 32 v70,2013-05-11 09:58:00,
2013-05-11 06:00:00,72.6,70.8,30.00,South,178,0.0,4.0,94,0.00,,,0.00,Weather View 32 v70,2013-05-11 10:00:00,
2013-05-11 06:03:00,72.6,70.8,30.00,South,178,3.0,4.0,94,0.00,,,0.00,Weather View 32 v70,2013-05-11 10:03:00,
2013-05-11 06:08:00,72.6,70.8,30.00,South,172,0.0,4.0,94,0.00,,,0.00,Weather View 32 v70,2013-05-11 10:08:00,
2013-05-11 06:13:00,72.5,70.7,30.00,South,173,2.0,4.0,94,0.00,,,0.00,Weather View 32 v70,2013-05-11 10:13:00,
2013-05-11 06:18:00,72.5,70.7,30.00,South,173,0.0,4.0,94,0.00,,,0.00,Weather View 32 v70,2013-05-11 10:18:00,
2013-05-11 06:23:00,72.5,71.0,30.01,South,172,3.0,4.0,95,0.00,,,0.00,Weather View 32 v70,2013-05-11 10:23:00,
2013-05-11 06:28:00,72.5,71.0,30.00,South,172,0.0,4.0,95,0.00,,,0.00,Weather View 32 v70,2013-05-11 10:28:00,
2013-05-11 06:33:00,72.5,71.0,30.00,South,172,0.0,4.0,95,0.00,,,0.00,Weather View 32 v70,2013-05-11 10:33:00,
2013-05-11 06:38:00,72.5,71.0,30.01,SSE,167,2.0,5.0,95,0.00,,,0.00,Weather View 32 v70,2013-05-11 10:38:00,
2013-05-11 06:43:00,72.5,71.0,30.01,SSE,167,2.0,5.0,95,0.00,,,0.00,Weather View 32 v70,2013-05-11 10:43:00,
2013-05-11 06:48:00,72.5,71.0,30.01,SSE,167,0.0,5.0,95,0.00,,,0.00,Weather View 32 v70,2013-05-11 10:48:00,
2013-05-11 06:53:00,72.4,70.9,30.01,SSE,167,0.0,5.0,95,0.00,,,0.00,Weather View 32 v70,2013-05-11 10:53:00,
2013-05-11 06:58:00,72.5,71.0,30.01,SSE,167,0.0,5.0,95,0.00,,,0.00,Weather View 32 v70,2013-05-11 10:58:00,
2013-05-11 07:00:00,72.5,71.0,30.01,SSE,167,0.0,5.0,95,0.00,,,0.00,Weather View 32 v70,2013-05-11 11:00:00,
2013-05-11 07:03:00,72.5,71.0,30.01,SSE,165,3.0,5.0,95,0.00,,,0.00,Weather View 32 v70,2013-05-11 11:03:00,
2013-05-11 07:08:00,72.5,71.0,30.01,SSE,166,0.0,5.0,95,0.00,,,0.00,Weather View 32 v70,2013-05-11 11:08:00,
2013-05-11 07:13:00,72.6,71.1,30.01,SSE,165,0.0,5.0,95,0.00,,,0.00,Weather View 32 v70,2013-05-11 11:13:00,
2013-05-11 07:18:00,72.6,71.1,30.01,SSE,165,0.0,5.0,95,0.00,,,0.00,Weather View 32 v70,2013-05-11 11:18:00,
2013-05-11 07:23:00,72.6,71.1,30.02,SSE,165,0.0,5.0,95,0.00,,,0.00,Weather View 32 v70,2013-05-11 11:23:00,
2013-05-11 07:28:00,72.7,71.2,30.01,SSE,166,0.0,5.0,95,0.00,,,0.00,Weather View 32 v70,2013-05-11 11:28:00,
2013-05-11 07:33:00,72.7,71.2,30.01,SSE,165,0.0,5.0,95,0.00,,,0.00,Weather View 32 v70,2013-05-11 11:33:00,
2013-05-11 07:38:00,72.8,71.3,30.02,SSE,165,0.0,4.0,95,0.00,,,0.00,Weather View 32 v70,2013-05-11 11:38:00,
2013-05-11 07:43:00,72.8,71.3,30.02,SSE,165,0.0,4.0,95,0.00,,,0.00,Weather View 32 v70,2013-05-11 11:43:00,
2013-05-11 07:48:00,72.8,71.3,30.02,SSE,165,0.0,4.0,95,0.00,,,0.00,Weather View 32 v70,2013-05-11 11:48:00,
2013-05-11 07:53:00,72.9,71.4,30.02,SSE,165,3.0,4.0,95,0.00,,,0.00,Weather View 32 v70,2013-05-11 11:53:00,
2013-05-11 07:58:00,73.0,71.5,30.02,SSE,165,0.0,4.0,95,0.00,,,0.00,Weather View 32 v70,2013-05-11 11:58:00,
2013-05-11 08:00:00,73.1,71.6,30.02,SSE,165,0.0,4.0,95,0.00,,,0.00,Weather View 32 v70,2013-05-11 12:00:00,
2013-05-11 08:04:00,73.1,71.6,30.02,SSE,163,0.0,5.0,95,0.00,,,0.00,Weather View 32 v70,2013-05-11 12:04:00,
2013-05-11 08:09:00,73.3,71.8,30.02,SSE,163,0.0,5.0,95,0.00,,,0.00,Weather View 32 v70,2013-05-11 12:09:00,
2013-05-11 08:14:00,73.6,72.1,30.02,SSE,163,0.0,5.0,95,0.00,,,0.00,Weather View 32 v70,2013-05-11 12:14:00,
2013-05-11 08:19:00,74.0,72.5,30.02,SSE,163,0.0,5.0,95,0.00,,,0.00,Weather View 32 v70,2013-05-11 12:19:00,
2013-05-11 08:24:00,74.6,73.1,30.02,SSE,163,0.0,5.0,95,0.00,,,0.00,Weather View 32 v70,2013-05-11 12:24:00,
2013-05-11 08:29:00,74.8,73.3,30.02,SSE,163,0.0,5.0,95,0.00,,,0.00,Weather View 32 v70,2013-05-11 12:29:00,
2013-05-11 08:34:00,75.0,73.5,30.03,SSE,163,0.0,5.0,95,0.00,,,0.00,Weather View 32 v70,2013-05-11 12:34:00,
2013-05-11 08:39:00,75.0,73.5,30.02,SSE,159,0.0,5.0,95,0.00,,,0.00,Weather View 32 v70,2013-05-11 12:39:00,
2013-05-11 08:44:00,75.3,73.8,30.02,SSE,159,0.0,5.0,95,0.00,,,0.00,Weather View 32 v70,2013-05-11 12:44:00,
2013-05-11 08:49:00,75.6,73.7,30.02,SSE,159,0.0,5.0,94,0.00,,,0.00,Weather View 32 v70,2013-05-11 12:49:00,
2013-05-11 08:54:00,75.9,74.0,30.03,SSE,159,0.0,5.0,94,0.00,,,0.00,Weather View 32 v70,2013-05-11 12:54:00,
2013-05-11 08:59:00,76.2,74.3,30.03,SSE,159,0.0,5.0,94,0.00,,,0.00,Weather View 32 v70,2013-05-11 12:59:00,
2013-05-11 09:00:00,76.4,74.5,30.03,SSE,159,0.0,5.0,94,0.00,,,0.00,Weather View 32 v70,2013-05-11 13:00:00,
2013-05-11 09:04:00,76.7,74.8,30.03,SSE,159,0.0,4.0,94,0.00,,,0.00,Weather View 32 v70,2013-05-11 13:04:00,
2013-05-11 09:09:00,76.9,74.7,30.03,South,171,0.0,4.0,93,0.00,,,0.00,Weather View 32 v70,2013-05-11 13:09:00,
2013-05-11 09:14:00,77.1,74.6,30.03,South,171,3.0,5.0,92,0.00,,,0.00,Weather View 32 v70,2013-05-11 13:14:00,
2013-05-11 09:19:00,77.5,75.0,30.03,SSE,155,0.0,6.0,92,0.00,,,0.00,Weather View 32 v70,2013-05-11 13:19:00,
2013-05-11 09:24:00,78.3,75.4,30.03,SSE,155,0.0,6.0,91,0.00,,,0.00,Weather View 32 v70,2013-05-11 13:24:00,
2013-05-11 09:29:00,78.8,75.3,30.04,South,180,3.0,6.0,89,0.00,,,0.00,Weather View 32 v70,2013-05-11 13:29:00,
2013-05-11 09:34:00,79.0,75.1,30.04,SSE,163,2.0,6.0,88,0.00,,,0.00,Weather View 32 v70,2013-05-11 13:34:00,
2013-05-11 09:39:00,79.8,75.9,30.04,SSW,211,7.0,7.0,88,0.00,,,0.00,Weather View 32 v70,2013-05-11 13:39:00,
2013-05-11 09:44:00,80.0,75.4,30.04,SSW,211,0.0,7.0,86,0.00,,,0.00,Weather View 32 v70,2013-05-11 13:44:00,
2013-05-11 09:49:00,80.3,75.7,30.04,SSW,210,0.0,7.0,86,0.00,,,0.00,Weather View 32 v70,2013-05-11 13:49:00,
2013-05-11 09:54:00,80.7,75.7,30.04,SSW,209,7.0,7.0,85,0.00,,,0.00,Weather View 32 v70,2013-05-11 13:54:00,
2013-05-11 09:59:00,80.6,75.3,30.04,SW,218,8.0,10.0,84,0.00,,,0.00,Weather View 32 v70,2013-05-11 13:59:00,
2013-05-11 10:00:00,80.6,75.3,30.04,SW,219,5.0,10.0,84,0.00,,,0.00,Weather View 32 v70,2013-05-11 14:00:00,
2013-05-11 10:04:00,80.5,75.6,30.04,SW,220,3.0,10.0,85,0.00,,,0.00,Weather View 32 v70,2013-05-11 14:04:00,
2013-05-11 10:09:00,81.0,76.0,30.04,SSW,198,2.0,10.0,85,0.00,,,0.00,Weather View 32 v70,2013-05-11 14:09:00,
2013-05-11 10:14:00,81.4,75.7,30.04,SSW,200,3.0,10.0,83,0.00,,,0.00,Weather View 32 v70,2013-05-11 14:14:00,
2013-05-11 10:19:00,81.3,75.6,30.03,SSW,210,4.0,10.0,83,0.00,,,0.00,Weather View 32 v70,2013-05-11 14:19:00,
2013-05-11 10:24:00,81.3,74.9,30.04,SSW,194,3.0,10.0,81,0.00,,,0.00,Weather View 32 v70,2013-05-11 14:24:00,
2013-05-11 10:29:00,81.2,75.2,30.04,SSW,192,0.0,11.0,82,0.00,,,0.00,Weather View 32 v70,2013-05-11 14:29:00,
2013-05-11 10:34:00,81.4,75.3,30.04,SSW,208,0.0,11.0,82,0.00,,,0.00,Weather View 32 v70,2013-05-11 14:34:00,
2013-05-11 10:39:00,81.8,75.7,30.04,SSW,205,3.0,11.0,82,0.00,,,0.00,Weather View 32 v70,2013-05-11 14:39:00,
2013-05-11 10:45:00,82.1,75.3,30.04,SW,216,8.0,11.0,80,0.00,,,0.00,Weather View 32 v70,2013-05-11 14:45:00,
2013-05-11 10:50:00,82.3,75.9,30.04,SSW,212,7.0,11.0,81,0.00,,,0.00,Weather View 32 v70,2013-05-11 14:50:00,
2013-05-11 10:55:00,82.6,75.4,30.03,SSW,205,3.0,11.0,79,0.00,,,0.00,Weather View 32 v70,2013-05-11 14:55:00,
2013-05-11 11:00:00,82.8,75.6,30.03,SSW,193,5.0,11.0,79,0.00,,,0.00,Weather View 32 v70,2013-05-11 15:00:00,
2013-05-11 11:05:00,83.3,75.3,30.03,SSW,209,7.0,11.0,77,0.00,,,0.00,Weather View 32 v70,2013-05-11 15:05:00,
2013-05-11 11:10:00,83.2,75.6,30.03,SSW,205,2.0,11.0,78,0.00,,,0.00,Weather View 32 v70,2013-05-11 15:10:00,
2013-05-11 11:15:00,83.3,75.7,30.03,SSW,196,0.0,11.0,78,0.00,,,0.00,Weather View 32 v70,2013-05-11 15:15:00,
2013-05-11 11:20:00,83.4,75.8,30.03,SSW,205,1.0,12.0,78,0.00,,,0.00,Weather View 32 v70,2013-05-11 15:20:00,
2013-05-11 11:25:00,83.9,75.9,30.04,South,189,0.0,12.0,77,0.00,,,0.00,Weather View 32 v70,2013-05-11 15:25:00,
2013-05-11 11:30:00,83.5,75.5,30.03,SSW,206,2.0,12.0,77,0.00,,,0.00,Weather View 32 v70,2013-05-11 15:30:00,
2013-05-11 11:35:00,83.8,76.2,30.03,SW,214,3.0,12.0,78,0.00,,,0.00,Weather View 32 v70,2013-05-11 15:35:00,
2013-05-11 11:40:00,84.1,76.1,30.03,SSW,197,4.0,12.0,77,0.00,,,0.00,Weather View 32 v70,2013-05-11 15:40:00,
2013-05-11 11:45:00,84.7,76.3,30.03,SW,223,8.0,12.0,76,0.00,,,0.00,Weather View 32 v70,2013-05-11 15:45:00,
2013-05-11 11:50:00,83.9,75.9,30.03,South,190,3.0,12.0,77,0.00,,,0.00,Weather View 32 v70,2013-05-11 15:50:00,
2013-05-11 11:55:00,84.3,76.3,30.03,SSW,210,0.0,12.0,77,0.00,,,0.00,Weather View 32 v70,2013-05-11 15:55:00,
2013-05-11 12:00:00,84.2,76.2,30.03,SSW,209,5.0,12.0,77,0.00,,,0.00,Weather View 32 v70,2013-05-11 16:00:00,
2013-05-11 12:05:00,84.2,76.6,30.03,SSW,198,5.0,12.0,78,0.00,,,0.00,Weather View 32 v70,2013-05-11 16:05:00,
2013-05-11 12:10:00,85.0,76.9,30.03,SSW,202,5.0,12.0,77,0.00,,,0.00,Weather View 32 v70,2013-05-11 16:10:00,
2013-05-11 12:15:00,85.4,76.5,30.03,SSW,204,5.0,12.0,75,0.00,,,0.00,Weather View 32 v70,2013-05-11 16:15:00,
2013-05-11 12:20:00,85.7,76.8,30.03,SSW,196,6.0,12.0,75,0.00,,,0.00,Weather View 32 v70,2013-05-11 16:20:00,
2013-05-11 12:25:00,85.4,76.9,30.03,SSW,198,3.0,12.0,76,0.00,,,0.00,Weather View 32 v70,2013-05-11 16:25:00,
2013-05-11 12:30:00,86.0,77.5,30.03,SSE,163,0.0,12.0,76,0.00,,,0.00,Weather View 32 v70,2013-05-11 16:30:00,
2013-05-11 12:35:00,86.6,76.9,30.03,SSW,194,4.0,12.0,73,0.00,,,0.00,Weather View 32 v70,2013-05-11 16:35:00,
2013-05-11 12:40:00,86.3,77.0,30.03,SSW,205,2.0,12.0,74,0.00,,,0.00,Weather View 32 v70,2013-05-11 16:40:00,
2013-05-11 12:45:00,86.4,76.7,30.02,SSW,199,4.0,12.0,73,0.00,,,0.00,Weather View 32 v70,2013-05-11 16:45:00,
2013-05-11 12:50:00,86.3,76.6,30.03,SSW,204,3.0,11.0,73,0.00,,,0.00,Weather View 32 v70,2013-05-11 16:50:00,
2013-05-11 12:55:00,86.6,76.0,30.02,SSW,213,0.0,11.0,71,0.00,,,0.00,Weather View 32 v70,2013-05-11 16:55:00,
2013-05-11 13:00:00,87.3,76.7,30.02,SW,222,6.0,11.0,71,0.00,,,0.00,Weather View 32 v70,2013-05-11 17:00:00,
2013-05-11 13:05:00,87.0,74.7,30.02,SSW,201,3.0,11.0,67,0.00,,,0.00,Weather View 32 v70,2013-05-11 17:05:00,
2013-05-11 13:10:00,87.3,76.3,30.02,SSW,213,3.0,11.0,70,0.00,,,0.00,Weather View 32 v70,2013-05-11 17:10:00,
2013-05-11 13:15:00,87.2,76.6,30.02,SSW,205,3.0,11.0,71,0.00,,,0.00,Weather View 32 v70,2013-05-11 17:15:00,
2013-05-11 13:20:00,87.0,76.4,30.02,SSW,208,0.0,11.0,71,0.00,,,0.00,Weather View 32 v70,2013-05-11 17:20:00,
2013-05-11 13:25:00,87.3,76.7,30.02,SSW,205,0.0,10.0,71,0.00,,,0.00,Weather View 32 v70,2013-05-11 17:25:00,
2013-05-11 13:30:00,87.9,76.0,30.02,South,190,0.0,10.0,68,0.00,,,0.00,Weather View 32 v70,2013-05-11 17:30:00,
2013-05-11 13:36:00,87.9,76.0,30.02,SW,216,7.0,12.0,68,0.00,,,0.00,Weather View 32 v70,2013-05-11 17:36:00,
2013-05-11 13:41:00,87.7,76.6,30.02,SW,221,3.0,12.0,70,0.00,,,0.00,Weather View 32 v70,2013-05-11 17:41:00,
2013-05-11 13:46:00,88.0,75.6,30.02,West,269,5.0,12.0,67,0.00,,,0.00,Weather View 32 v70,2013-05-11 17:46:00,
2013-05-11 13:51:00,87.8,75.9,30.02,SSW,206,0.0,12.0,68,0.00,,,0.00,Weather View 32 v70,2013-05-11 17:51:00,
2013-05-11 13:56:00,88.1,76.2,30.02,South,186,5.0,12.0,68,0.00,,,0.00,Weather View 32 v70,2013-05-11 17:56:00,
2013-05-11 14:00:00,87.8,77.2,30.02,SSW,203,5.0,12.0,71,0.00,,,0.00,Weather View 32 v70,2013-05-11 18:00:00,
2013-05-11 14:01:00,87.7,76.2,30.02,South,186,5.0,12.0,69,0.00,,,0.00,Weather View 32 v70,2013-05-11 18:01:00,
2013-05-11 14:06:00,86.9,76.3,30.02,SSW,192,3.0,12.0,71,0.00,,,0.00,Weather View 32 v70,2013-05-11 18:06:00,
2013-05-11 14:11:00,87.4,76.8,30.02,South,183,0.0,12.0,71,0.00,,,0.00,Weather View 32 v70,2013-05-11 18:11:00,
2013-05-11 14:16:00,88.4,77.3,30.01,SW,222,0.0,12.0,70,0.00,,,0.00,Weather View 32 v70,2013-05-11 18:16:00,
2013-05-11 14:21:00,88.6,77.1,30.01,SW,214,0.0,12.0,69,0.00,,,0.00,Weather View 32 v70,2013-05-11 18:21:00,
2013-05-11 14:26:00,89.0,77.5,30.01,SSW,207,0.0,12.0,69,0.00,,,0.00,Weather View 32 v70,2013-05-11 18:26:00,
2013-05-11 14:31:00,88.3,76.8,30.02,SW,221,4.0,12.0,69,0.00,,,0.00,Weather View 32 v70,2013-05-11 18:31:00,
2013-05-11 14:36:00,86.9,76.3,30.01,SW,226,5.0,10.0,71,0.00,,,0.00,Weather View 32 v70,2013-05-11 18:36:00,
2013-05-11 14:41:00,86.5,75.9,30.01,SW,225,3.0,10.0,71,0.00,,,0.00,Weather View 32 v70,2013-05-11 18:41:00,
2013-05-11 14:46:00,85.9,76.2,30.01,SSW,198,0.0,12.0,73,0.00,,,0.00,Weather View 32 v70,2013-05-11 18:46:00,
2013-05-11 14:51:00,85.7,76.4,30.00,South,190,4.0,12.0,74,0.00,,,0.00,Weather View 32 v70,2013-05-11 18:51:00,
2013-05-11 14:56:00,85.9,76.6,30.00,SW,216,3.0,12.0,74,0.00,,,0.00,Weather View 32 v70,2013-05-11 18:56:00,
2013-05-11 15:00:00,86.0,77.1,30.00,SSW,193,4.0,12.0,75,0.00,,,0.00,Weather View 32 v70,2013-05-11 19:00:00,
2013-05-11 15:01:00,86.0,76.7,30.00,SW,216,6.0,12.0,74,0.00,,,0.00,Weather View 32 v70,2013-05-11 19:01:00,
2013-05-11 15:06:00,85.9,77.0,30.01,South,169,3.0,12.0,75,0.00,,,0.00,Weather View 32 v70,2013-05-11 19:06:00,
2013-05-11 15:11:00,85.9,77.0,30.00,South,187,5.0,12.0,75,0.00,,,0.00,Weather View 32 v70,2013-05-11 19:11:00,
2013-05-11 15:16:00,85.7,76.8,30.00,South,169,4.0,12.0,75,0.00,,,0.00,Weather View 32 v70,2013-05-11 19:16:00,
2013-05-11 15:21:00,85.4,76.9,30.01,SSW,204,5.0,12.0,76,0.00,,,0.00,Weather View 32 v70,2013-05-11 19:21:00,
2013-05-11 15:26:00,85.0,76.9,30.00,SSW,194,8.0,12.0,77,0.00,,,0.00,Weather View 32 v70,2013-05-11 19:26:00,
2013-05-11 15:31:00,84.6,76.6,30.00,SSW,196,5.0,14.0,77,0.00,,,0.00,Weather View 32 v70,2013-05-11 19:31:00,
2013-05-11 15:36:00,84.7,77.4,30.00,SW,217,5.0,14.0,79,0.00,,,0.00,Weather View 32 v70,2013-05-11 19:36:00,
2013-05-11 15:41:00,85.1,77.0,30.00,WSW,252,2.0,14.0,77,0.00,,,0.00,Weather View 32 v70,2013-05-11 19:41:00,
2013-05-11 15:46:00,85.3,77.2,30.01,South,191,4.0,14.0,77,0.00,,,0.00,Weather View 32 v70,2013-05-11 19:46:00,
2013-05-11 15:51:00,84.9,76.4,30.00,West,259,7.0,14.0,76,0.00,,,0.00,Weather View 32 v70,2013-05-11 19:51:00,
2013-05-11 15:56:00,84.6,76.6,30.00,South,190,12.0,14.0,77,0.00,,,0.00,Weather View 32 v70,2013-05-11 19:56:00,
2013-05-11 16:00:00,84.3,76.7,30.00,SW,215,6.0,14.0,78,0.00,,,0.00,Weather View 32 v70,2013-05-11 20:00:00,
2013-05-11 16:01:00,84.2,76.6,30.00,SSW,198,0.0,14.0,78,0.00,,,0.00,Weather View 32 v70,2013-05-11 20:01:00,
2013-05-11 16:06:00,83.7,76.5,30.00,SW,222,4.0,14.0,79,0.00,,,0.00,Weather View 32 v70,2013-05-11 20:06:00,
2013-05-11 16:11:00,83.3,76.5,30.01,SSW,202,8.0,14.0,80,0.00,,,0.00,Weather View 32 v70,2013-05-11 20:11:00,
2013-05-11 16:17:00,83.0,76.5,30.01,SSW,199,8.0,14.0,81,0.00,,,0.00,Weather View 32 v70,2013-05-11 20:17:00,
2013-05-11 16:22:00,83.1,77.0,30.00,SSW,200,4.0,14.0,82,0.00,,,0.00,Weather View 32 v70,2013-05-11 20:22:00,
2013-05-11 16:27:00,83.5,77.4,29.99,SSW,206,3.0,14.0,82,0.00,,,0.00,Weather View 32 v70,2013-05-11 20:27:00,
2013-05-11 16:32:00,83.9,77.0,30.00,South,188,3.0,13.0,80,0.00,,,0.00,Weather View 32 v70,2013-05-11 20:32:00,
2013-05-11 16:37:00,83.8,76.9,30.00,West,275,7.0,13.0,80,0.00,,,0.00,Weather View 32 v70,2013-05-11 20:37:00,
2013-05-11 16:42:00,83.3,76.8,30.00,West,272,3.0,13.0,81,0.00,,,0.00,Weather View 32 v70,2013-05-11 20:42:00,
2013-05-11 16:47:00,83.0,76.5,30.00,SW,223,5.0,13.0,81,0.00,,,0.00,Weather View 32 v70,2013-05-11 20:47:00,
2013-05-11 16:52:00,82.7,77.0,30.00,SW,229,4.0,13.0,83,0.00,,,0.00,Weather View 32 v70,2013-05-11 20:52:00,
2013-05-11 16:57:00,82.7,76.6,30.00,SSW,207,2.0,13.0,82,0.00,,,0.00,Weather View 32 v70,2013-05-11 20:57:00,
2013-05-11 17:02:00,82.8,76.7,30.00,SW,233,5.0,13.0,82,0.00,,,0.00,Weather View 32 v70,2013-05-11 21:02:00,
2013-05-11 17:07:00,82.5,76.8,30.00,SSW,203,0.0,12.0,83,0.00,,,0.00,Weather View 32 v70,2013-05-11 21:07:00,
2013-05-11 17:12:00,82.6,76.9,30.00,SSW,195,0.0,12.0,83,0.00,,,0.00,Weather View 32 v70,2013-05-11 21:12:00,
2013-05-11 17:17:00,83.0,77.3,30.00,South,173,0.0,12.0,83,0.00,,,0.00,Weather View 32 v70,2013-05-11 21:17:00,
2013-05-11 17:22:00,83.5,77.0,30.00,SSW,192,6.0,12.0,81,0.00,,,0.00,Weather View 32 v70,2013-05-11 21:22:00,
2013-05-11 17:27:00,83.2,77.1,29.99,SSW,211,4.0,12.0,82,0.00,,,0.00,Weather View 32 v70,2013-05-11 21:27:00,
2013-05-11 17:32:00,83.2,77.1,30.00,SW,227,3.0,12.0,82,0.00,,,0.00,Weather View 32 v70,2013-05-11 21:32:00,
2013-05-11 17:37:00,83.0,76.9,30.00,WSW,242,2.0,12.0,82,0.00,,,0.00,Weather View 32 v70,2013-05-11 21:37:00,
2013-05-11 17:42:00,82.7,76.6,29.99,SSW,192,5.0,12.0,82,0.00,,,0.00,Weather View 32 v70,2013-05-11 21:42:00,
2013-05-11 17:47:00,82.5,76.4,29.99,West,278,6.0,12.0,82,0.00,,,0.00,Weather View 32 v70,2013-05-11 21:47:00,
2013-05-11 17:52:00,82.2,76.5,29.99,WSW,246,3.0,12.0,83,0.00,,,0.00,Weather View 32 v70,2013-05-11 21:52:00,
2013-05-11 17:57:00,82.0,76.7,29.99,WSW,254,7.0,12.0,84,0.00,,,0.00,Weather View 32 v70,2013-05-11 21:57:00,
2013-05-11 18:02:00,81.7,76.4,29.99,SSW,200,0.0,12.0,84,0.00,,,0.00,Weather View 32 v70,2013-05-11 22:02:00,
2013-05-11 18:07:00,81.7,76.4,29.99,WSW,241,1.0,12.0,84,0.00,,,0.00,Weather View 32 v70,2013-05-11 22:07:00,
2013-05-11 18:12:00,81.3,76.3,29.99,WSW,240,2.0,12.0,85,0.00,,,0.00,Weather View 32 v70,2013-05-11 22:12:00,
2013-05-11 18:17:00,81.0,76.0,29.98,SSW,201,2.0,12.0,85,0.00,,,0.00,Weather View 32 v70,2013-05-11 22:17:00,
2013-05-11 18:22:00,80.7,76.1,29.98,WSW,253,3.0,12.0,86,0.00,,,0.00,Weather View 32 v70,2013-05-11 22:22:00,
2013-05-11 18:27:00,80.6,76.0,29.99,SSW,205,2.0,12.0,86,0.00,,,0.00,Weather View 32 v70,2013-05-11 22:27:00,
2013-05-11 18:32:00,80.5,76.3,29.98,WSW,253,5.0,12.0,87,0.00,,,0.00,Weather View 32 v70,2013-05-11 22:32:00,
2013-05-11 18:37:00,80.3,75.7,29.98,SSW,200,4.0,11.0,86,0.00,,,0.00,Weather View 32 v70,2013-05-11 22:37:00,
2013-05-11 18:42:00,80.1,75.9,29.98,SSW,202,0.0,11.0,87,0.00,,,0.00,Weather View 32 v70,2013-05-11 22:42:00,
2013-05-11 18:47:00,80.1,75.9,29.98,SW,234,4.0,11.0,87,0.00,,,0.00,Weather View 32 v70,2013-05-11 22:47:00,
2013-05-11 18:52:00,80.2,76.0,29.98,SSW,211,0.0,11.0,87,0.00,,,0.00,Weather View 32 v70,2013-05-11 22:52:00,
2013-05-11 18:57:00,80.3,76.1,29.98,SW,227,2.0,11.0,87,0.00,,,0.00,Weather View 32 v70,2013-05-11 22:57:00,
2013-05-11 19:02:00,80.3,76.1,29.99,WSW,252,5.0,11.0,87,0.00,,,0.00,Weather View 32 v70,2013-05-11 23:02:00,
2013-05-11 19:08:00,80.2,76.0,29.99,SW,236,3.0,11.0,87,0.00,,,0.00,Weather View 32 v70,2013-05-11 23:08:00,
2013-05-11 19:13:00,80.1,75.9,29.99,WSW,248,3.0,10.0,87,0.00,,,0.00,Weather View 32 v70,2013-05-11 23:13:00,
2013-05-11 19:18:00,80.0,75.8,29.99,WSW,246,4.0,8.0,87,0.00,,,0.00,Weather View 32 v70,2013-05-11 23:18:00,
2013-05-11 19:23:00,80.1,75.9,29.99,WSW,248,4.0,8.0,87,0.00,,,0.00,Weather View 32 v70,2013-05-11 23:23:00,
2013-05-11 19:28:00,80.0,75.8,29.99,West,270,2.0,8.0,87,0.00,,,0.00,Weather View 32 v70,2013-05-11 23:28:00,
2013-05-11 19:33:00,80.1,75.9,29.99,West,261,5.0,8.0,87,0.00,,,0.00,Weather View 32 v70,2013-05-11 23:33:00,
2013-05-11 19:38:00,79.8,75.2,29.99,WSW,238,2.0,8.0,86,0.00,,,0.00,Weather View 32 v70,2013-05-11 23:38:00,
2013-05-11 19:43:00,79.6,75.4,29.98,WSW,252,0.0,8.0,87,0.00,,,0.00,Weather View 32 v70,2013-05-11 23:43:00,
2013-05-11 19:48:00,79.5,75.3,29.98,WSW,252,0.0,8.0,87,0.00,,,0.00,Weather View 32 v70,2013-05-11 23:48:00,
2013-05-11 19:53:00,79.3,74.7,30.00,West,261,0.0,8.0,86,0.00,,,0.00,Weather View 32 v70,2013-05-11 23:53:00,
2013-05-11 19:58:00,79.2,75.0,30.00,WSW,238,3.0,8.0,87,0.00,,,0.00,Weather View 32 v70,2013-05-11 23:58:00,
2013-05-11 20:03:00,79.2,75.0,30.00,West,265,9.0,9.0,87,0.00,,,0.00,Weather View 32 v70,2013-05-12 00:03:00,
2013-05-11 20:08:00,79.0,75.1,30.00,WSW,240,3.0,9.0,88,0.00,,,0.00,Weather View 32 v70,2013-05-12 00:08:00,
2013-05-11 20:13:00,78.8,74.9,30.00,West,268,3.0,9.0,88,0.00,,,0.00,Weather View 32 v70,2013-05-12 00:13:00,
2013-05-11 20:18:00,78.7,74.8,30.01,West,265,0.0,9.0,88,0.00,,,0.00,Weather View 32 v70,2013-05-12 00:18:00,
2013-05-11 20:23:00,78.7,75.2,30.00,WNW,285,8.0,9.0,89,0.00,,,0.00,Weather View 32 v70,2013-05-12 00:23:00,
2013-05-11 20:28:00,78.7,75.2,30.00,WSW,248,4.0,9.0,89,0.00,,,0.00,Weather View 32 v70,2013-05-12 00:28:00,
2013-05-11 20:33:00,78.5,75.0,30.00,West,274,2.0,9.0,89,0.00,,,0.00,Weather View 32 v70,2013-05-12 00:33:00,
2013-05-11 20:38:00,78.4,74.9,30.00,WSW,249,0.0,9.0,89,0.00,,,0.00,Weather View 32 v70,2013-05-12 00:38:00,
2013-05-11 20:43:00,78.3,74.8,30.00,West,261,0.0,9.0,89,0.00,,,0.00,Weather View 32 v70,2013-05-12 00:43:00,
2013-05-11 20:48:00,78.2,74.7,30.00,West,261,0.0,9.0,89,0.00,,,0.00,Weather View 32 v70,2013-05-12 00:48:00,
2013-05-11 20:53:00,78.2,74.7,30.00,West,261,0.0,9.0,89,0.00,,,0.00,Weather View 32 v70,2013-05-12 00:53:00,
2013-05-11 20:58:00,78.1,74.6,30.01,West,261,0.0,9.0,89,0.00,,,0.00,Weather View 32 v70,2013-05-12 00:58:00,
2013-05-11 21:03:00,78.1,74.6,30.01,West,261,2.0,9.0,89,0.00,,,0.00,Weather View 32 v70,2013-05-12 01:03:00,
2013-05-11 21:08:00,78.0,74.5,30.01,WSW,254,0.0,8.0,89,0.00,,,0.00,Weather View 32 v70,2013-05-12 01:08:00,
2013-05-11 21:13:00,77.9,74.4,30.01,WSW,254,0.0,8.0,89,0.00,,,0.00,Weather View 32 v70,2013-05-12 01:13:00,
2013-05-11 21:18:00,77.8,74.3,30.00,WSW,254,0.0,8.0,89,0.00,,,0.00,Weather View 32 v70,2013-05-12 01:18:00,
2013-05-11 21:23:00,77.7,74.2,30.00,WSW,254,0.0,8.0,89,0.00,,,0.00,Weather View 32 v70,2013-05-12 01:23:00,
2013-05-11 21:28:00,77.6,74.1,30.00,WSW,253,0.0,8.0,89,0.00,,,0.00,Weather View 32 v70,2013-05-12 01:28:00,
2013-05-11 21:33:00,77.5,74.0,30.01,WSW,254,0.0,6.0,89,0.00,,,0.00,Weather View 32 v70,2013-05-12 01:33:00,
2013-05-11 21:38:00,77.5,74.0,30.01,WSW,254,0.0,4.0,89,0.00,,,0.00,Weather View 32 v70,2013-05-12 01:38:00,
2013-05-11 21:43:00,77.4,73.9,30.01,WSW,253,0.0,4.0,89,0.00,,,0.00,Weather View 32 v70,2013-05-12 01:43:00,
2013-05-11 21:49:00,77.3,73.8,30.01,WSW,254,0.0,4.0,89,0.00,,,0.00,Weather View 32 v70,2013-05-12 01:49:00,
2013-05-11 21:54:00,77.3,73.8,30.01,WSW,254,0.0,4.0,89,0.00,,,0.00,Weather View 32 v70,2013-05-12 01:54:00,
2013-05-11 21:59:00,77.3,74.1,30.01,WSW,253,0.0,4.0,90,0.00,,,0.00,Weather View 32 v70,2013-05-12 01:59:00,
2013-05-11 22:04:00,77.2,74.0,30.01,WSW,254,0.0,4.0,90,0.00,,,0.00,Weather View 32 v70,2013-05-12 02:04:00,
2013-05-11 22:09:00,77.1,73.9,30.01,WSW,253,0.0,4.0,90,0.00,,,0.00,Weather View 32 v70,2013-05-12 02:09:00,
2013-05-11 22:14:00,77.0,73.8,30.01,WSW,254,0.0,4.0,90,0.00,,,0.00,Weather View 32 v70,2013-05-12 02:14:00,
2013-05-11 22:19:00,77.0,73.8,30.02,WSW,253,0.0,3.0,90,0.00,,,0.00,Weather View 32 v70,2013-05-12 02:19:00,
2013-05-11 22:24:00,76.9,73.7,30.02,WSW,254,0.0,3.0,90,0.00,,,0.00,Weather View 32 v70,2013-05-12 02:24:00,
2013-05-11 22:29:00,76.9,73.7,30.02,WSW,253,0.0,3.0,90,0.00,,,0.00,Weather View 32 v70,2013-05-12 02:29:00,
2013-05-11 22:34:00,76.8,73.6,30.02,WSW,253,0.0,3.0,90,0.00,,,0.00,Weather View 32 v70,2013-05-12 02:34:00,
2013-05-11 22:39:00,76.7,73.5,30.02,WSW,254,0.0,3.0,90,0.00,,,0.00,Weather View 32 v70,2013-05-12 02:39:00,
2013-05-11 22:44:00,76.6,73.4,30.02,WSW,254,0.0,3.0,90,0.00,,,0.00,Weather View 32 v70,2013-05-12 02:44:00,
2013-05-11 22:49:00,76.5,73.3,30.02,WSW,254,0.0,3.0,90,0.00,,,0.00,Weather View 32 v70,2013-05-12 02:49:00,
2013-05-11 22:54:00,76.4,73.2,30.02,WSW,253,0.0,3.0,90,0.00,,,0.00,Weather View 32 v70,2013-05-12 02:54:00,
2013-05-11 22:59:00,76.3,73.5,30.02,WSW,254,0.0,2.0,91,0.00,,,0.00,Weather View 32 v70,2013-05-12 02:59:00,
2013-05-11 23:04:00,76.3,73.5,30.02,WSW,254,0.0,2.0,91,0.00,,,0.00,Weather View 32 v70,2013-05-12 03:04:00,
2013-05-11 23:09:00,76.1,73.3,30.02,WSW,254,0.0,2.0,91,0.00,,,0.00,Weather View 32 v70,2013-05-12 03:09:00,
2013-05-11 23:14:00,76.1,73.3,30.02,WSW,253,0.0,2.0,91,0.00,,,0.00,Weather View 32 v70,2013-05-12 03:14:00,
2013-05-11 23:19:00,76.0,73.2,30.02,WSW,254,0.0,2.0,91,0.00,,,0.00,Weather View 32 v70,2013-05-12 03:19:00,
2013-05-11 23:24:00,75.9,73.1,30.01,WSW,254,0.0,2.0,91,0.00,,,0.00,Weather View 32 v70,2013-05-12 03:24:00,
2013-05-11 23:29:00,75.8,73.0,30.01,WSW,254,0.0,2.0,91,0.00,,,0.00,Weather View 32 v70,2013-05-12 03:29:00,
2013-05-11 23:34:00,75.7,72.9,30.02,WSW,254,0.0,0.0,91,0.00,,,0.00,Weather View 32 v70,2013-05-12 03:34:00,
2013-05-11 23:39:00,75.6,72.8,30.02,WSW,253,0.0,0.0,91,0.00,,,0.00,Weather View 32 v70,2013-05-12 03:39:00,
2013-05-11 23:44:00,75.5,72.7,30.02,WSW,254,0.0,0.0,91,0.00,,,0.00,Weather View 32 v70,2013-05-12 03:44:00,
2013-05-11 23:49:00,75.5,72.7,30.02,WSW,253,0.0,0.0,91,0.00,,,0.00,Weather View 32 v70,2013-05-12 03:49:00,
2013-05-11 23:54:00,75.4,72.6,30.02,WSW,254,0.0,0.0,91,0.00,,,0.00,Weather View 32 v70,2013-05-12 03:54:00,
2013-05-11 23:59:00,75.3,72.5,30.02,WSW,253,0.0,0.0,91,0.00,,,0.00,Weather View 32 v70,2013-05-12 03:59:00,